Etusivu
METAR-TAF:

METAR-TAF

Lentoasemat :

Custer Airport

Monroe, Michigan, Yhdysvallat

Leveyspiiri: 41-56-24N, Pituuspiiri: 083-26-05W, korkeus merenpinnasta: 188 m

Tämänhetkinen sää

Tämä raportti tehtiin 18 minuuttia sitten, kello 10.16 UTC
Tuuli 3 kn etelästä/kaakosta
Lämpötila 7°C
Kosteus 87%
Ilmanpaine 1012 hPa
Näkyvyys: 16.1 km
Pilvistä 3100 ft:n korkeudessa
heikkoa tihkusadetta

METAR: KTTF 071016Z AUTO 16003KT 10SM -DZ OVC031 07/05 A2989 RMK AO2 T00660052

Aika: 06:34 (10:34 UTC)


TAF: puuttuu

Säähavainnot ja -ennusteet yli 4000 lentoasemalta (METAR- ja TAF-raportit).

Käytössä olevat sääasemat on merkitty karttaan keltaisilla ja punaisilla pisteillä.

Aseta hiiri pisteen päälle nähdäksesi sääaseman nimen.

Klikkaa sitten nähdäksesi säähavainnot ja -ennusteet.

Kartan vaihtaminen: klikkaa mustalla rastilla varustettuja vihreitä pisteitä, niin voit zoomata sisään; viivalla varustettua vihreää pistettä, niin voit zoomata ulos tai vihreitä nuolia, niin pääset viereisille kartoille.


METAR-TAF: